Flight Track Log - Related Links

Times and Time Zones

All times are in EST time to prevent confusion due to time zone crossing. See the N277CM flight status page for this flight to view local times or setup timezone preferences in your user account.

Time Position Orientation Groundspeed Altitude Reporting Facility
EST Latitude Longitude Course Direction KTS MPH feet Rate Location/Type
Wed 10:19:06 AM 39.3333 -76.4500 176° South 109 125 1,500  Level Potomac TRACON
Wed 10:20:06 AM 39.3167 -76.4500 180° South 111 128 2,600 783 Climbing Potomac TRACON
Wed 10:21:01 AM 39.2833 -76.4500 180° South 127 146 3,000 149 Climbing Potomac TRACON
Wed 10:22:07 AM 39.2333 -76.4333 166° South 150 173 2,900 -50 Descending Potomac TRACON
Wed 10:23:01 AM 39.2000 -76.4167 159° South 149 171 2,900 50 Level Potomac TRACON
Wed 10:24:00 AM 39.1405 -76.6156 176° South  Level Estimated
Wed 10:24:07 AM 39.1500 -76.4000 166° South 151 174 3,000  Level Potomac TRACON
Wed 10:25:07 AM 39.1167 -76.4000 180° South 152 175 2,900 -53 Descending Potomac TRACON
Wed 10:26:01 AM 39.0833 -76.3833 159° South 152 175 2,900  Level Potomac TRACON
Wed 10:27:01 AM 39.0333 -76.3833 180° South 151 174 2,900  Level Potomac TRACON
Wed 10:28:01 AM 39.0000 -76.4000 201° Southwest 166 191 2,900  Level Potomac TRACON
Wed 10:29:07 AM 38.9500 -76.4000 180° South 153 176 2,900  Level Potomac TRACON
Wed 10:30:01 AM 38.9167 -76.4000 180° South 160 184 2,900  Level Potomac TRACON
Wed 10:31:01 AM 38.8833 -76.4500 229° Southwest 165 190 2,900 50 Level Potomac TRACON
Wed 10:32:01 AM 38.8667 -76.5000 247° West 164 189 3,000 100 Climbing Potomac TRACON
Wed 10:33:01 AM 38.8333 -76.5500 229° Southwest 164 189 3,100 52 Climbing Potomac TRACON
Wed 10:33:56 AM 38.8167 -76.5833 237° Southwest 165 190 3,100  Level Potomac TRACON
Wed 10:35:02 AM 38.7833 -76.6333 229° Southwest 167 192 3,100 -56 Level Potomac TRACON
Wed 10:35:44 AM 38.7603 -76.6700 231° Southwest 164 189 3,000 -58 Descending Washington Center
Wed 10:36:45 AM 38.7314 -76.7169 232° Southwest 164 189 3,000  Level Washington Center
Wed 10:37:48 AM 38.7031 -76.7644 233° Southwest 164 189 3,000  Level Washington Center
Wed 10:38:49 AM 38.6739 -76.8114 231° Southwest 165 190 3,000 48 Level Washington Center
Wed 10:39:53 AM 38.6453 -76.8578 232° Southwest 165 190 3,100 48 Climbing Washington Center
Wed 10:40:54 AM 38.6175 -76.9039 232° Southwest 165 190 3,100  Level Washington Center
Wed 10:41:55 AM 38.5842 -76.9583 232° Southwest 165 190 3,100  Level Washington Center
Wed 10:42:59 AM 38.5553 -77.0044 231° Southwest 165 190 3,100  Level Washington Center
Wed 10:44:00 AM 38.5272 -77.0494 231° Southwest 164 189 3,100  Level Washington Center
Wed 10:45:03 AM 38.4986 -77.0958 232° Southwest 164 189 3,100  Level Washington Center
Wed 10:46:04 AM 38.4703 -77.1414 232° Southwest 164 189 3,100 -197 Level Washington Center
Wed 10:47:05 AM 38.4414 -77.1869 231° Southwest 164 189 2,700 -432 Descending Washington Center
Wed 10:48:09 AM 38.4061 -77.2453 232° Southwest 165 190 2,200 -288 Descending Washington Center
Wed 10:49:10 AM 38.3778 -77.2928 233° Southwest 167 192 2,100 -48 Descending Washington Center
Wed 10:50:13 AM 38.3514 -77.3350 231° Southwest 167 192 2,100  Level Washington Center

Login

Don't have an account? Register now (free) for customized features, flight alerts, and more!